Latest Weather Observations for Wagga Wagga

IDN60801

Issued at 7:32 pm EST Wednesday 12 August 2020 (issued every 10 minutes, with the page automatically refreshed every 10 minutes)

About weather observations | Map of weather stations | Latest weather observations for NSW | Other Formats
Station Details ID: 072150 Name: WAGGA WAGGA AMO Lat: -35.16 Lon: 147.46 Height: 212.0 m
Data from the previous 72 hours. | See also: Recent months at Wagga Wagga
Date/Time
EST
Temp
°C
App
Temp
°C
Dew
Point
°C
Rel
Hum
%
Delta-T
°C
Wind Press
QNH
hPa
Press
MSL
hPa
Rain since
9am
mm
Dir  Spd
km/h
Gust
km/h
Spd
kts
Gust
kts
12/07:30pm 11.5 9.8 11.3 99 0.1 E 11 13 6 7 1011.6 1011.9 0.2
12/07:00pm 11.7 10.5 11.5 99 0.1 ENE 9 11 5 6 1011.5 1011.8 0.2
12/06:30pm 12.0 10.9 11.8 99 0.1 E 9 11 5 6 1011.2 1011.5 0.2
12/06:00pm 12.3 10.7 11.7 96 0.3 E 11 13 6 7 1011.0 1011.3 0.2
12/05:30pm 12.6 10.8 12.0 96 0.3 E 13 13 7 7 1010.7 1011.0 0.2
12/05:00pm 13.0 11.5 11.9 93 0.6 ENE 11 15 6 8 1010.6 1010.9 0.2
12/04:30pm 13.3 12.2 11.9 91 0.8 ENE 9 11 5 6 1010.6 1010.9 0.2
12/04:00pm 13.3 12.2 11.9 91 0.8 NE 9 13 5 7 1010.5 1010.8 0.2
12/03:30pm 13.4 11.4 11.6 89 1.0 NE 13 15 7 8 1010.6 1010.9 0.2
12/03:00pm 13.6 11.3 11.8 89 1.0 ENE 15 17 8 9 1010.7 1011.0 0.2
12/02:30pm 13.2 11.3 11.8 91 0.8 NE 13 15 7 8 1010.9 1011.2 0.2
12/02:00pm 13.2 11.5 11.3 88 1.0 NNE 11 15 6 8 1011.2 1011.5 0.2
12/01:30pm 12.7 10.3 10.2 85 1.3 NNE 13 15 7 8 1011.4 1011.7 0.2
12/01:00pm 12.9 10.4 9.7 81 1.7 N 13 19 7 10 1011.8 1012.1 0.2
12/12:30pm 13.4 11.5 10.4 82 1.6 NNE 11 17 6 9 1012.2 1012.5 0.2
12/12:00pm 13.4 11.5 10.6 83 1.5 ENE 11 15 6 8 1012.6 1012.9 0.2
12/11:30am 12.5 10.6 10.6 88 1.0 E 11 17 6 9 1013.1 1013.4 0.2
12/11:00am 11.7 8.9 9.9 89 0.9 E 15 17 8 9 1013.6 1013.9 0.2
12/10:30am 11.0 8.8 9.4 90 0.8 E 11 15 6 8 1014.2 1014.5 0.2
12/10:00am 11.3 8.9 8.7 84 1.3 ENE 11 13 6 7 1014.6 1014.9 0.0
12/09:30am 10.8 7.9 8.2 84 1.3 E 13 17 7 9 1014.8 1015.1 0.0
12/09:00am 10.7 7.7 7.6 81 1.5 E 13 17 7 9 1015.0 1015.3 0.0
12/08:30am 10.1 6.7 7.7 85 1.2 E 15 19 8 10 1014.9 1015.2 0.0
12/08:00am 9.2 6.1 7.2 87 1.0 E 13 15 7 8 1015.0 1015.3 0.0
12/07:30am 8.7 5.5 7.0 89 0.8 E 13 17 7 9 1015.0 1015.3 0.0
12/07:00am 8.4 5.6 6.9 90 0.7 E 11 13 6 7 1014.9 1015.2 0.0
12/06:30am 8.3 5.5 6.8 90 0.7 E 11 13 6 7 1014.8 1015.1 0.0
12/06:00am 8.3 5.5 6.8 90 0.7 E 11 13 6 7 1014.5 1014.8 0.0
12/05:30am 8.5 5.7 6.8 89 0.8 E 11 13 6 7 1014.3 1014.6 0.0
12/05:00am 8.8 6.0 6.8 87 0.9 ENE 11 13 6 7 1014.5 1014.8 0.0
12/04:30am 8.8 6.0 6.8 87 0.9 ENE 11 13 6 7 1014.3 1014.6 0.0
12/04:00am 9.0 5.8 6.8 86 1.0 E 13 19 7 10 1014.4 1014.7 0.0
12/03:30am 8.8 5.6 6.9 88 0.9 ENE 13 17 7 9 1014.8 1015.1 0.0
12/03:00am 8.6 5.8 6.9 89 0.8 E 11 13 6 7 1015.2 1015.5 0.0
12/02:30am 8.5 5.3 7.0 90 0.7 E 13 17 7 9 1015.5 1015.8 0.0
12/02:00am 8.1 5.3 6.9 92 0.6 ENE 11 13 6 7 1015.9 1016.2 0.0
12/01:30am 8.4 5.2 6.7 89 0.8 ENE 13 15 7 8 1016.3 1016.6 0.0
12/01:00am 8.9 4.9 6.7 86 1.0 E 17 22 9 12 1015.8 1016.1 0.0
12/12:30am 9.2 4.9 6.8 85 1.1 E 19 24 10 13 1015.8 1016.1 0.0
12/12:00am 8.9 5.7 6.7 86 1.0 ENE 13 15 7 8 1016.6 1016.9 0.0
 
Date/Time
EST
Temp
°C
App
Temp
°C
Dew
Point
°C
Rel
Hum
%
Delta-T
°C
Wind Press
QNH
hPa
Press
MSL
hPa
Rain since
9am
mm
Dir  Spd
km/h
Gust
km/h
Spd
kts
Gust
kts
11/11:30pm 9.1 5.9 6.9 86 1.0 E 13 15 7 8 1016.6 1016.9 0.0
11/11:00pm 9.1 6.0 7.2 88 0.9 E 13 17 7 9 1017.0 1017.3 0.0
11/10:30pm 7.7 7.1 7.6 99 0.0 CALM 0 0 0 0 1017.3 1017.6 0.0
11/10:00pm 9.1 6.7 7.1 87 0.9 ENE 9 11 5 6 1017.2 1017.5 0.0
11/09:30pm 9.0 6.3 7.5 90 0.7 ESE 11 13 6 7 1017.0 1017.3 0.0
11/09:00pm 9.1 7.2 7.5 90 0.8 NW 7 9 4 5 1017.6 1017.9 0.0
11/08:30pm 9.6 6.9 7.2 85 1.1 E 11 13 6 7 1016.8 1017.1 0.0
11/08:00pm 9.7 7.4 7.5 86 1.1 E 9 11 5 6 1016.6 1016.9 0.0
11/07:30pm 10.0 6.9 7.4 84 1.3 E 13 15 7 8 1016.4 1016.7 0.0
11/07:00pm 10.4 6.9 7.3 81 1.5 E 15 17 8 9 1016.6 1016.9 0.0
11/06:30pm 10.8 7.3 7.1 78 1.8 E 15 17 8 9 1016.7 1017.0 0.0
11/06:00pm 11.0 7.9 7.3 78 1.8 E 13 15 7 8 1017.1 1017.4 0.0
11/05:30pm 11.7 8.5 6.8 72 2.4 E 13 15 7 8 1017.0 1017.3 0.0
11/05:00pm 12.3 9.4 6.4 67 2.8 E 11 13 6 7 1017.3 1017.6 0.0
11/04:30pm 13.1 10.6 6.5 64 3.2 ENE 9 9 5 5 1017.5 1017.8 0.0
11/04:00pm 13.3 10.7 5.9 61 3.5 N 9 11 5 6 1017.8 1018.2 0.0
11/03:30pm 13.4 10.2 5.3 58 3.8 N 11 15 6 8 1017.9 1018.3 0.0
11/03:00pm 13.3 10.2 5.7 60 3.6 N 11 15 6 8 1018.0 1018.4 0.0
11/02:30pm 13.5 10.4 5.7 59 3.7 NNE 11 17 6 9 1018.0 1018.4 0.0
11/02:00pm 13.6 11.0 6.2 61 3.6 N 9 19 5 10 1018.2 1018.6 0.0
11/01:30pm 13.7 10.4 6.6 62 3.5 ENE 13 19 7 10 1018.1 1018.5 0.0
11/01:00pm 13.5 9.5 6.8 64 3.3 ENE 17 24 9 13 1018.6 1019.0 0.0
11/12:30pm 13.1 9.2 7.3 68 2.9 NE 17 28 9 15 1019.5 1019.8 0.0
11/12:00pm 12.0 7.5 6.3 68 2.7 ENE 19 28 10 15 1020.1 1020.4 0.0
11/11:30am 11.3 6.9 6.4 72 2.3 ENE 19 24 10 13 1020.4 1020.7 0.0
11/11:00am 10.6 6.5 6.4 75 2.0 E 17 22 9 12 1020.9 1021.2 0.0
11/10:30am 9.7 5.4 5.3 74 2.0 ENE 17 24 9 13 1021.4 1021.7 0.0
11/10:00am 8.9 4.5 4.9 76 1.8 E 17 19 9 10 1021.6 1021.9 0.0
11/09:30am 7.6 4.5 5.7 88 0.9 E 11 15 6 8 1021.5 1021.8 0.0
11/09:00am 6.5 3.7 5.3 92 0.5 E 9 11 5 6 1021.9 1022.3 0.0
11/08:30am 5.5 2.3 5.1 97 0.2 E 11 13 6 7 1021.5 1021.8 0.0
11/08:00am 4.4 1.0 4.1 98 0.1 E 11 13 6 7 1021.4 1021.7 0.0
11/07:30am 3.5 0.4 3.4 99 0.0 E 9 11 5 6 1021.4 1021.7 0.0
11/07:00am 2.7 -1.3 2.6 99 0.0 ESE 13 15 7 8 1021.2 1021.5 0.0
11/06:30am 1.8 -2.4 1.7 99 0.0 ESE 13 15 7 8 1021.2 1021.5 0.0
11/06:00am 1.6 -1.5 1.5 99 0.0 ENE 7 9 4 5 1021.5 1021.8 0.0
11/05:30am 1.6 -1.5 1.5 99 0.0 E 7 7 4 4 1021.3 1021.6 0.0
11/05:00am 1.5 -0.3 1.5 100 0.0 CALM 0 0 0 0 1021.2 1021.5 0.0
11/04:30am 1.5 -0.3 1.4 99 0.0 CALM 0 0 0 0 1021.0 1021.3 0.0
11/04:00am 2.5 0.9 2.4 99 0.0 CALM 0 0 0 0 1020.7 1021.0 0.0
11/03:30am 2.0 -1.4 1.9 99 0.0 S 9 9 5 5 1020.8 1021.1 0.0
11/03:00am 4.9 1.4 3.7 92 0.5 ESE 11 13 6 7 1020.6 1020.9 0.0
11/02:30am 4.3 0.1 3.9 97 0.2 ESE 15 17 8 9 1020.6 1020.9 0.0
11/02:00am 4.6 0.1 4.3 98 0.1 ESE 17 17 9 9 1021.2 1021.5 0.0
11/01:30am 4.7 1.4 4.3 97 0.2 ESE 11 13 6 7 1021.7 1022.0 0.0
11/01:00am 4.3 0.6 4.2 99 0.0 ESE 13 15 7 8 1022.1 1022.5 0.0
11/12:30am 4.2 1.2 4.1 99 0.0 SE 9 11 5 6 1022.4 1022.8 0.0
11/12:00am 3.4 0.3 3.4 100 0.0 S 9 11 5 6 1022.4 1022.8 0.0
 
Date/Time
EST
Temp
°C
App
Temp
°C
Dew
Point
°C
Rel
Hum
%
Delta-T
°C
Wind Press
QNH
hPa
Press
MSL
hPa
Rain since
9am
mm
Dir  Spd
km/h
Gust
km/h
Spd
kts
Gust
kts
10/11:30pm 2.9 -0.7 2.8 99 0.0 SSW 11 11 6 6 1022.4 1022.8 0.0
10/11:00pm 2.6 -1.1 2.5 99 0.0 SW 11 13 6 7 1022.0 1022.4 0.0
10/10:30pm 2.2 0.4 1.5 95 0.3 CALM 0 6 0 3 1021.8 1022.2 0.0
10/10:00pm 5.0 3.3 4.1 94 0.4 E 2 7 1 4 1021.8 1022.2 0.0
10/09:30pm 5.2 2.5 3.9 91 0.6 E 7 11 4 6 1021.6 1021.9 0.0
10/09:00pm 4.8 3.2 4.5 98 0.1 SW 2 6 1 3 1021.4 1021.7 0.0
10/08:30pm 4.4 3.0 3.5 94 0.4 CALM 0 7 0 4 1021.1 1021.4 0.0
10/08:00pm 4.1 2.5 2.5 89 0.6 CALM 0 0 0 0 1020.8 1021.1 0.0
10/07:30pm 6.8 5.5 4.1 83 1.2 CALM 0 0 0 0 1020.3 1020.6 0.0
10/07:00pm 8.6 5.9 3.8 72 2.1 ENE 7 9 4 5 1020.3 1020.6 0.0
10/06:30pm 9.9 7.3 4.1 67 2.6 W 7 9 4 5 1020.0 1020.3 0.0
10/06:00pm 11.4 10.0 3.4 58 3.6 CALM 0 0 0 0 1020.0 1020.3 0.0
10/05:30pm 13.4 11.7 2.0 46 5.0 CALM 0 0 0 0 1020.0 1020.3 0.0
10/05:00pm 15.2 13.4 1.4 39 6.1 CALM 0 0 0 0 1019.8 1020.1 0.0
10/04:30pm 15.3 12.3 1.1 38 6.2 W 6 9 3 5 1019.5 1019.8 0.0
10/04:00pm 15.5 13.0 1.3 38 6.2 NNW 4 11 2 6 1019.4 1019.7 0.0
10/03:30pm 15.8 13.1 2.6 41 6.0 NNE 6 11 3 6 1019.2 1019.5 0.0
10/03:00pm 15.6 12.8 2.1 40 6.0 NE 6 11 3 6 1019.3 1019.6 0.0
10/02:30pm 15.5 12.4 1.6 39 6.2 E 7 9 4 5 1019.4 1019.7 0.0
10/02:00pm 15.2 12.4 3.4 45 5.4 ENE 7 17 4 9 1019.3 1019.6 0.0
10/01:30pm 14.9 11.4 1.4 40 5.9 ESE 9 15 5 8 1019.5 1019.8 0.0
10/01:00pm 14.6 11.7 1.5 41 5.7 SE 6 13 3 7 1019.8 1020.1 0.0
10/12:30pm 14.5 10.9 3.0 46 5.2 SSE 11 17 6 9 1020.0 1020.3 0.0
10/12:00pm 14.3 11.1 5.1 54 4.3 SSE 11 19 6 10 1020.4 1020.7 0.0
10/11:30am 14.1 9.9 3.8 50 4.7 SSE 15 22 8 12 1020.6 1020.9 0.0
10/11:00am 13.2 8.0 3.3 51 4.5 SSE 20 30 11 16 1020.9 1021.2 0.0
10/10:30am 12.6 6.7 3.8 55 4.0 SSE 24 30 13 16 1020.7 1021.0 0.0
10/10:00am 12.0 6.6 4.5 60 3.4 SE 22 30 12 16 1020.7 1021.0 0.0
10/09:30am 11.2 5.4 4.4 63 3.1 SSE 24 28 13 15 1020.7 1021.0 0.0
10/09:00am 10.1 5.2 4.9 70 2.4 S 20 30 11 16 1020.6 1020.9 0.0
10/08:30am 8.7 5.0 4.7 76 1.8 S 13 17 7 9 1020.5 1020.8 0.0
10/08:00am 6.2 2.1 4.4 88 0.8 SSE 15 20 8 11 1020.4 1020.7 0.0
10/07:30am 5.1 1.1 3.0 86 0.9 SSE 13 15 7 8 1019.9 1020.2 0.0
10/07:00am 4.3 0.0 3.4 94 0.4 SSE 15 17 8 9 1019.5 1019.8 0.0
10/06:30am 4.1 -0.2 3.1 93 0.4 SSE 15 17 8 9 1018.8 1019.2 0.0
10/06:00am 3.9 1.6 3.0 94 0.4 SSE 4 11 2 6 1018.4 1018.8 0.0
10/05:30am 3.8 1.1 2.6 92 0.5 WSW 6 7 3 4 1017.9 1018.3 0.0
10/05:00am 5.0 2.2 3.3 89 0.7 S 7 11 4 6 1017.7 1018.0 0.0
10/04:30am 7.6 1.6 3.3 74 1.8 S 24 28 13 15 1017.2 1017.5 0.0
10/04:00am 8.2 2.7 4.0 75 1.8 SSE 22 28 12 15 1016.8 1017.1 0.0
10/03:30am 5.0 0.4 3.8 92 0.5 S 17 26 9 14 1016.5 1016.8 0.0
10/03:00am 5.5 2.5 4.3 92 0.5 E 9 11 5 6 1016.4 1016.7 0.0
10/02:30am 5.9 3.0 4.9 93 0.4 S 9 9 5 5 1016.3 1016.6 0.0
10/02:00am 6.1 2.6 5.5 96 0.3 SW 13 17 7 9 1016.3 1016.6 0.0
10/01:30am 5.8 1.4 4.6 92 0.5 SW 17 19 9 10 1016.0 1016.3 0.0
10/01:00am 5.4 1.4 4.8 96 0.3 SW 15 17 8 9 1016.0 1016.3 0.0
10/12:30am 5.3 1.6 4.3 93 0.4 SW 13 13 7 7 1015.7 1016.0 0.0
10/12:00am 6.8 3.6 5.0 88 0.8 SSW 11 13 6 7 1015.9 1016.2 0.0
 
Date/Time
EST
Temp
°C
App
Temp
°C
Dew
Point
°C
Rel
Hum
%
Delta-T
°C
Wind Press
QNH
hPa
Press
MSL
hPa
Rain since
9am
mm
Dir  Spd
km/h
Gust
km/h
Spd
kts
Gust
kts
09/11:30pm 8.2 4.0 5.5 83 1.2 SSE 17 22 9 12 1016.0 1016.3 0.0
09/11:00pm 7.0 3.3 4.5 84 1.1 SSW 13 17 7 9 1016.0 1016.3 0.0
09/10:30pm 9.0 4.2 5.4 78 1.6 S 20 24 11 13 1015.9 1016.2 0.0
09/10:00pm 7.7 3.4 5.3 85 1.1 S 17 20 9 11 1015.9 1016.2 0.0
09/09:30pm 9.5 5.4 6.4 81 1.5 S 17 19 9 10 1015.7 1016.0 0.0
09/09:00pm 8.5 4.4 6.0 84 1.2 SSE 17 17 9 9 1015.7 1016.0 0.0
09/08:30pm 10.1 5.9 5.7 74 2.0 SSE 17 19 9 10 1015.5 1015.8 0.0
09/08:00pm 11.6 5.6 5.5 66 2.9 SSE 26 35 14 19 1014.9 1015.2 0.0

Other formats

Comma delimited format used in spreadsheet applications
http://www.bom.gov.au/fwo/IDN60801/IDN60801.94910.axf

JavaScript Object Notation format (JSON) in row-major order
http://www.bom.gov.au/fwo/IDN60801/IDN60801.94910.json

Data quality

Most of these data are generated automatically and are frequently updated. Quality checks on data are not normally performed. It is possible for incorrect values to appear. Refer to information at About Latest Weather Observations and please check the disclaimer before using these data.